sensor_id;sensor_type;location;lat;lon;timestamp;P1;durP1;ratioP1;P2;durP2;ratioP2
20036;SDS011;10179;42.640;23.312;2022-09-09T00:01:48;9.80;;;5.70;;
20036;SDS011;10179;42.640;23.312;2022-09-09T00:06:55;11.15;;;6.72;;
20036;SDS011;10179;42.640;23.312;2022-09-09T00:09:28;8.25;;;6.00;;
20036;SDS011;10179;42.640;23.312;2022-09-09T00:12:02;7.68;;;5.38;;
20036;SDS011;10179;42.640;23.312;2022-09-09T00:14:41;8.20;;;5.63;;
20036;SDS011;10179;42.640;23.312;2022-09-09T00:17:22;11.40;;;5.70;;
20036;SDS011;10179;42.640;23.312;2022-09-09T00:20:12;11.80;;;5.35;;
20036;SDS011;10179;42.640;23.312;2022-09-09T00:22:49;7.90;;;5.55;;
20036;SDS011;10179;42.640;23.312;2022-09-09T00:25:27;9.68;;;5.03;;
20036;SDS011;10179;42.640;23.312;2022-09-09T00:27:59;7.53;;;5.43;;
20036;SDS011;10179;42.640;23.312;2022-09-09T00:30:26;10.32;;;5.70;;
20036;SDS011;10179;42.640;23.312;2022-09-09T00:33:00;8.00;;;5.25;;
20036;SDS011;10179;42.640;23.312;2022-09-09T00:35:37;8.07;;;4.82;;
20036;SDS011;10179;42.640;23.312;2022-09-09T00:38:10;8.93;;;5.45;;
20036;SDS011;10179;42.640;23.312;2022-09-09T00:40:41;9.32;;;6.05;;
20036;SDS011;10179;42.640;23.312;2022-09-09T00:46:05;8.10;;;5.78;;
20036;SDS011;10179;42.640;23.312;2022-09-09T00:51:38;9.80;;;5.78;;
20036;SDS011;10179;42.640;23.312;2022-09-09T00:54:22;10.40;;;5.93;;
20036;SDS011;10179;42.640;23.312;2022-09-09T00:59:28;9.98;;;5.95;;
20036;SDS011;10179;42.640;23.312;2022-09-09T01:02:21;12.80;;;5.75;;
20036;SDS011;10179;42.640;23.312;2022-09-09T01:04:53;7.63;;;5.38;;
20036;SDS011;10179;42.640;23.312;2022-09-09T01:07:19;8.73;;;5.40;;
20036;SDS011;10179;42.640;23.312;2022-09-09T01:12:35;7.43;;;5.60;;
20036;SDS011;10179;42.640;23.312;2022-09-09T01:18:06;11.02;;;5.32;;
20036;SDS011;10179;42.640;23.312;2022-09-09T01:28:30;10.02;;;6.00;;
20036;SDS011;10179;42.640;23.312;2022-09-09T01:31:00;10.70;;;5.95;;
20036;SDS011;10179;42.640;23.312;2022-09-09T01:33:29;9.48;;;5.45;;
20036;SDS011;10179;42.640;23.312;2022-09-09T01:38:40;9.63;;;5.97;;
20036;SDS011;10179;42.640;23.312;2022-09-09T01:41:05;8.07;;;5.28;;
20036;SDS011;10179;42.640;23.312;2022-09-09T01:43:31;8.65;;;5.75;;
20036;SDS011;10179;42.640;23.312;2022-09-09T01:45:58;8.35;;;5.47;;
20036;SDS011;10179;42.640;23.312;2022-09-09T01:48:25;10.77;;;6.45;;
20036;SDS011;10179;42.640;23.312;2022-09-09T01:50:52;7.97;;;5.78;;
20036;SDS011;10179;42.640;23.312;2022-09-09T01:53:18;8.18;;;5.88;;
20036;SDS011;10179;42.640;23.312;2022-09-09T01:55:52;13.70;;;7.40;;
20036;SDS011;10179;42.640;23.312;2022-09-09T02:03:32;10.02;;;6.25;;
20036;SDS011;10179;42.640;23.312;2022-09-09T02:11:21;13.13;;;6.47;;
20036;SDS011;10179;42.640;23.312;2022-09-09T02:13:50;10.27;;;6.68;;
20036;SDS011;10179;42.640;23.312;2022-09-09T02:21:34;11.40;;;6.63;;
20036;SDS011;10179;42.640;23.312;2022-09-09T02:24:02;9.27;;;6.22;;
20036;SDS011;10179;42.640;23.312;2022-09-09T02:26:30;13.82;;;5.63;;
20036;SDS011;10179;42.640;23.312;2022-09-09T02:28:59;10.90;;;6.32;;
20036;SDS011;10179;42.640;23.312;2022-09-09T02:31:27;12.77;;;7.30;;
20036;SDS011;10179;42.640;23.312;2022-09-09T02:33:57;9.75;;;6.40;;
20036;SDS011;10179;42.640;23.312;2022-09-09T02:36:26;12.15;;;6.10;;
20036;SDS011;10179;42.640;23.312;2022-09-09T02:38:55;11.82;;;7.38;;
20036;SDS011;10179;42.640;23.312;2022-09-09T02:41:26;10.55;;;6.75;;
20036;SDS011;10179;42.640;23.312;2022-09-09T02:43:56;12.20;;;6.25;;
20036;SDS011;10179;42.640;23.312;2022-09-09T02:49:10;10.30;;;7.18;;
20036;SDS011;10179;42.640;23.312;2022-09-09T02:51:50;9.27;;;6.65;;
20036;SDS011;10179;42.640;23.312;2022-09-09T02:54:30;10.02;;;5.95;;
20036;SDS011;10179;42.640;23.312;2022-09-09T02:59:35;11.48;;;7.20;;
20036;SDS011;10179;42.640;23.312;2022-09-09T03:02:02;13.82;;;7.93;;
20036;SDS011;10179;42.640;23.312;2022-09-09T03:04:27;14.27;;;6.68;;
20036;SDS011;10179;42.640;23.312;2022-09-09T03:06:54;13.23;;;7.10;;
20036;SDS011;10179;42.640;23.312;2022-09-09T03:09:20;11.68;;;6.97;;
20036;SDS011;10179;42.640;23.312;2022-09-09T03:11:46;13.30;;;6.68;;
20036;SDS011;10179;42.640;23.312;2022-09-09T03:14:11;10.85;;;6.82;;
20036;SDS011;10179;42.640;23.312;2022-09-09T03:16:37;16.10;;;7.68;;
20036;SDS011;10179;42.640;23.312;2022-09-09T03:19:02;12.85;;;6.90;;
20036;SDS011;10179;42.640;23.312;2022-09-09T03:21:28;13.90;;;6.85;;
20036;SDS011;10179;42.640;23.312;2022-09-09T03:23:54;9.90;;;7.15;;
20036;SDS011;10179;42.640;23.312;2022-09-09T03:26:19;13.68;;;6.40;;
20036;SDS011;10179;42.640;23.312;2022-09-09T03:28:45;12.93;;;7.20;;
20036;SDS011;10179;42.640;23.312;2022-09-09T03:31:10;13.80;;;7.70;;
20036;SDS011;10179;42.640;23.312;2022-09-09T03:33:36;14.32;;;7.63;;
20036;SDS011;10179;42.640;23.312;2022-09-09T03:36:03;15.30;;;7.10;;
20036;SDS011;10179;42.640;23.312;2022-09-09T03:38:29;9.70;;;6.18;;
20036;SDS011;10179;42.640;23.312;2022-09-09T03:40:55;17.98;;;7.35;;
20036;SDS011;10179;42.640;23.312;2022-09-09T03:43:22;10.90;;;6.70;;
20036;SDS011;10179;42.640;23.312;2022-09-09T03:45:49;10.95;;;6.95;;
20036;SDS011;10179;42.640;23.312;2022-09-09T03:48:18;10.73;;;7.38;;
20036;SDS011;10179;42.640;23.312;2022-09-09T03:50:47;12.27;;;7.25;;
20036;SDS011;10179;42.640;23.312;2022-09-09T03:53:15;9.50;;;7.05;;
20036;SDS011;10179;42.640;23.312;2022-09-09T03:55:45;10.60;;;7.07;;
20036;SDS011;10179;42.640;23.312;2022-09-09T03:58:15;12.75;;;6.95;;
20036;SDS011;10179;42.640;23.312;2022-09-09T04:00:44;12.23;;;6.25;;
20036;SDS011;10179;42.640;23.312;2022-09-09T04:03:28;11.07;;;5.72;;
20036;SDS011;10179;42.640;23.312;2022-09-09T04:05:55;10.65;;;6.63;;
20036;SDS011;10179;42.640;23.312;2022-09-09T04:08:22;11.13;;;6.93;;
20036;SDS011;10179;42.640;23.312;2022-09-09T04:10:50;11.82;;;7.47;;
20036;SDS011;10179;42.640;23.312;2022-09-09T04:13:17;10.60;;;7.78;;
20036;SDS011;10179;42.640;23.312;2022-09-09T04:15:43;10.48;;;6.93;;
20036;SDS011;10179;42.640;23.312;2022-09-09T04:18:10;11.10;;;7.47;;
20036;SDS011;10179;42.640;23.312;2022-09-09T04:20:36;11.80;;;8.20;;
20036;SDS011;10179;42.640;23.312;2022-09-09T04:23:02;13.18;;;7.40;;
20036;SDS011;10179;42.640;23.312;2022-09-09T04:25:28;12.77;;;7.50;;
20036;SDS011;10179;42.640;23.312;2022-09-09T04:27:54;13.00;;;7.22;;
20036;SDS011;10179;42.640;23.312;2022-09-09T04:30:21;15.52;;;7.50;;
20036;SDS011;10179;42.640;23.312;2022-09-09T04:32:46;10.68;;;7.07;;
20036;SDS011;10179;42.640;23.312;2022-09-09T04:35:12;13.88;;;7.85;;
20036;SDS011;10179;42.640;23.312;2022-09-09T04:37:38;14.65;;;8.07;;
20036;SDS011;10179;42.640;23.312;2022-09-09T04:40:03;11.68;;;7.50;;
20036;SDS011;10179;42.640;23.312;2022-09-09T04:42:29;16.17;;;8.18;;
20036;SDS011;10179;42.640;23.312;2022-09-09T04:44:55;13.18;;;8.10;;
20036;SDS011;10179;42.640;23.312;2022-09-09T04:47:20;14.07;;;8.15;;
20036;SDS011;10179;42.640;23.312;2022-09-09T04:49:46;15.27;;;8.18;;
20036;SDS011;10179;42.640;23.312;2022-09-09T04:52:12;11.48;;;7.20;;
20036;SDS011;10179;42.640;23.312;2022-09-09T04:54:38;11.10;;;7.20;;
20036;SDS011;10179;42.640;23.312;2022-09-09T04:57:04;15.40;;;7.88;;
20036;SDS011;10179;42.640;23.312;2022-09-09T04:59:30;12.40;;;7.10;;
20036;SDS011;10179;42.640;23.312;2022-09-09T05:01:55;12.23;;;7.43;;
20036;SDS011;10179;42.640;23.312;2022-09-09T05:04:21;10.65;;;7.22;;
20036;SDS011;10179;42.640;23.312;2022-09-09T05:06:46;15.23;;;8.63;;
20036;SDS011;10179;42.640;23.312;2022-09-09T05:09:12;14.60;;;7.40;;
20036;SDS011;10179;42.640;23.312;2022-09-09T05:11:37;11.88;;;7.68;;
20036;SDS011;10179;42.640;23.312;2022-09-09T05:14:03;15.73;;;9.18;;
20036;SDS011;10179;42.640;23.312;2022-09-09T05:16:29;16.50;;;7.50;;
20036;SDS011;10179;42.640;23.312;2022-09-09T05:18:55;11.88;;;6.90;;
20036;SDS011;10179;42.640;23.312;2022-09-09T05:21:21;15.80;;;7.30;;
20036;SDS011;10179;42.640;23.312;2022-09-09T05:23:48;13.90;;;7.75;;
20036;SDS011;10179;42.640;23.312;2022-09-09T05:26:15;12.45;;;7.95;;
20036;SDS011;10179;42.640;23.312;2022-09-09T05:28:41;13.38;;;7.88;;
20036;SDS011;10179;42.640;23.312;2022-09-09T05:31:08;14.15;;;8.18;;
20036;SDS011;10179;42.640;23.312;2022-09-09T05:33:36;16.25;;;8.10;;
20036;SDS011;10179;42.640;23.312;2022-09-09T05:36:06;16.35;;;8.13;;
20036;SDS011;10179;42.640;23.312;2022-09-09T05:38:33;12.15;;;6.47;;
20036;SDS011;10179;42.640;23.312;2022-09-09T05:41:00;12.38;;;7.55;;
20036;SDS011;10179;42.640;23.312;2022-09-09T05:43:27;16.73;;;7.53;;
20036;SDS011;10179;42.640;23.312;2022-09-09T05:48:30;16.58;;;7.53;;
20036;SDS011;10179;42.640;23.312;2022-09-09T05:50:57;14.63;;;7.65;;
20036;SDS011;10179;42.640;23.312;2022-09-09T05:53:23;15.05;;;7.05;;
20036;SDS011;10179;42.640;23.312;2022-09-09T05:55:48;11.07;;;7.03;;
20036;SDS011;10179;42.640;23.312;2022-09-09T05:58:14;15.85;;;7.35;;
20036;SDS011;10179;42.640;23.312;2022-09-09T06:00:42;20.95;;;8.45;;
20036;SDS011;10179;42.640;23.312;2022-09-09T06:03:10;17.17;;;7.55;;
20036;SDS011;10179;42.640;23.312;2022-09-09T06:05:36;17.95;;;7.70;;
20036;SDS011;10179;42.640;23.312;2022-09-09T06:08:02;48.20;;;18.25;;
20036;SDS011;10179;42.640;23.312;2022-09-09T06:10:28;19.00;;;9.32;;
20036;SDS011;10179;42.640;23.312;2022-09-09T06:12:53;15.98;;;7.50;;
20036;SDS011;10179;42.640;23.312;2022-09-09T06:15:19;9.95;;;5.82;;
20036;SDS011;10179;42.640;23.312;2022-09-09T06:17:44;10.32;;;6.40;;
20036;SDS011;10179;42.640;23.312;2022-09-09T06:20:10;9.77;;;5.30;;
20036;SDS011;10179;42.640;23.312;2022-09-09T06:22:35;10.10;;;6.53;;
20036;SDS011;10179;42.640;23.312;2022-09-09T06:25:01;12.75;;;6.80;;
20036;SDS011;10179;42.640;23.312;2022-09-09T06:27:27;17.88;;;6.40;;
20036;SDS011;10179;42.640;23.312;2022-09-09T06:29:53;10.88;;;6.45;;
20036;SDS011;10179;42.640;23.312;2022-09-09T06:32:19;14.27;;;6.82;;
20036;SDS011;10179;42.640;23.312;2022-09-09T06:34:44;15.98;;;6.72;;
20036;SDS011;10179;42.640;23.312;2022-09-09T06:37:10;15.73;;;6.80;;
20036;SDS011;10179;42.640;23.312;2022-09-09T06:39:36;10.48;;;6.85;;
20036;SDS011;10179;42.640;23.312;2022-09-09T06:42:01;8.77;;;5.35;;
20036;SDS011;10179;42.640;23.312;2022-09-09T06:44:28;9.85;;;5.22;;
20036;SDS011;10179;42.640;23.312;2022-09-09T06:46:58;14.13;;;6.03;;
20036;SDS011;10179;42.640;23.312;2022-09-09T06:49:24;9.63;;;5.63;;
20036;SDS011;10179;42.640;23.312;2022-09-09T06:51:49;9.32;;;5.72;;
20036;SDS011;10179;42.640;23.312;2022-09-09T06:54:15;10.80;;;5.30;;
20036;SDS011;10179;42.640;23.312;2022-09-09T06:56:41;8.32;;;5.38;;
20036;SDS011;10179;42.640;23.312;2022-09-09T06:59:08;9.45;;;5.53;;
20036;SDS011;10179;42.640;23.312;2022-09-09T07:01:35;9.77;;;5.22;;
20036;SDS011;10179;42.640;23.312;2022-09-09T07:04:02;14.13;;;5.22;;
20036;SDS011;10179;42.640;23.312;2022-09-09T07:06:33;12.50;;;4.80;;
20036;SDS011;10179;42.640;23.312;2022-09-09T07:09:04;9.50;;;5.00;;
20036;SDS011;10179;42.640;23.312;2022-09-09T07:11:33;13.73;;;5.20;;
20036;SDS011;10179;42.640;23.312;2022-09-09T07:14:06;8.85;;;5.53;;
20036;SDS011;10179;42.640;23.312;2022-09-09T07:16:33;10.27;;;5.63;;
20036;SDS011;10179;42.640;23.312;2022-09-09T07:19:02;15.45;;;6.32;;
20036;SDS011;10179;42.640;23.312;2022-09-09T07:21:29;12.95;;;5.15;;
20036;SDS011;10179;42.640;23.312;2022-09-09T07:23:55;9.38;;;5.50;;
20036;SDS011;10179;42.640;23.312;2022-09-09T07:26:22;13.68;;;5.47;;
20036;SDS011;10179;42.640;23.312;2022-09-09T07:28:50;10.82;;;4.80;;
20036;SDS011;10179;42.640;23.312;2022-09-09T07:31:20;13.30;;;5.65;;
20036;SDS011;10179;42.640;23.312;2022-09-09T07:33:48;10.75;;;5.03;;
20036;SDS011;10179;42.640;23.312;2022-09-09T07:36:15;8.27;;;4.78;;
20036;SDS011;10179;42.640;23.312;2022-09-09T07:38:55;12.38;;;4.88;;
20036;SDS011;10179;42.640;23.312;2022-09-09T07:41:26;11.45;;;5.00;;
20036;SDS011;10179;42.640;23.312;2022-09-09T07:43:53;10.38;;;6.15;;
20036;SDS011;10179;42.640;23.312;2022-09-09T07:46:20;12.65;;;5.90;;
20036;SDS011;10179;42.640;23.312;2022-09-09T07:48:50;9.63;;;5.20;;
20036;SDS011;10179;42.640;23.312;2022-09-09T07:51:18;7.10;;;5.18;;
20036;SDS011;10179;42.640;23.312;2022-09-09T07:53:47;9.57;;;5.07;;
20036;SDS011;10179;42.640;23.312;2022-09-09T07:56:15;10.27;;;5.05;;
20036;SDS011;10179;42.640;23.312;2022-09-09T07:58:42;11.18;;;5.15;;
20036;SDS011;10179;42.640;23.312;2022-09-09T08:01:17;9.30;;;5.20;;
20036;SDS011;10179;42.640;23.312;2022-09-09T08:03:46;9.27;;;5.30;;
20036;SDS011;10179;42.640;23.312;2022-09-09T08:06:17;10.13;;;5.38;;
20036;SDS011;10179;42.640;23.312;2022-09-09T08:08:43;8.30;;;5.45;;
20036;SDS011;10179;42.640;23.312;2022-09-09T08:11:12;10.10;;;4.93;;
20036;SDS011;10179;42.640;23.312;2022-09-09T08:13:42;9.60;;;5.07;;
20036;SDS011;10179;42.640;23.312;2022-09-09T08:18:36;6.90;;;4.43;;
20036;SDS011;10179;42.640;23.312;2022-09-09T08:21:10;9.68;;;5.07;;
20036;SDS011;10179;42.640;23.312;2022-09-09T08:23:38;10.98;;;4.95;;
20036;SDS011;10179;42.640;23.312;2022-09-09T08:26:13;9.40;;;4.95;;
20036;SDS011;10179;42.640;23.312;2022-09-09T08:28:40;9.18;;;4.90;;
20036;SDS011;10179;42.640;23.312;2022-09-09T08:31:13;12.07;;;4.47;;
20036;SDS011;10179;42.640;23.312;2022-09-09T08:33:40;8.93;;;4.68;;
20036;SDS011;10179;42.640;23.312;2022-09-09T08:36:08;13.57;;;5.40;;
20036;SDS011;10179;42.640;23.312;2022-09-09T08:38:35;15.60;;;5.63;;
20036;SDS011;10179;42.640;23.312;2022-09-09T08:52:25;7.93;;;4.55;;
20036;SDS011;10179;42.640;23.312;2022-09-09T08:55:01;13.55;;;5.22;;
20036;SDS011;10179;42.640;23.312;2022-09-09T08:57:46;11.18;;;5.18;;
20036;SDS011;10179;42.640;23.312;2022-09-09T09:00:16;9.20;;;4.88;;
20036;SDS011;10179;42.640;23.312;2022-09-09T09:02:46;6.78;;;4.57;;
20036;SDS011;10179;42.640;23.312;2022-09-09T09:05:32;9.80;;;5.20;;
20036;SDS011;10179;42.640;23.312;2022-09-09T09:11:06;12.50;;;5.22;;
20036;SDS011;10179;42.640;23.312;2022-09-09T09:16:23;8.43;;;4.13;;
20036;SDS011;10179;42.640;23.312;2022-09-09T09:18:58;11.05;;;4.60;;
20036;SDS011;10179;42.640;23.312;2022-09-09T09:27:33;8.18;;;4.45;;
20036;SDS011;10179;42.640;23.312;2022-09-09T09:30:04;7.10;;;4.40;;
20036;SDS011;10179;42.640;23.312;2022-09-09T09:32:39;10.20;;;4.50;;
20036;SDS011;10179;42.640;23.312;2022-09-09T09:35:12;6.47;;;4.57;;
20036;SDS011;10179;42.640;23.312;2022-09-09T09:37:39;10.40;;;4.35;;
20036;SDS011;10179;42.640;23.312;2022-09-09T09:40:16;6.47;;;4.57;;
20036;SDS011;10179;42.640;23.312;2022-09-09T09:48:01;6.78;;;4.25;;
20036;SDS011;10179;42.640;23.312;2022-09-09T09:50:28;8.68;;;4.35;;
20036;SDS011;10179;42.640;23.312;2022-09-09T09:52:57;6.65;;;3.92;;
20036;SDS011;10179;42.640;23.312;2022-09-09T09:55:48;6.45;;;3.97;;
20036;SDS011;10179;42.640;23.312;2022-09-09T09:58:19;8.25;;;4.13;;
20036;SDS011;10179;42.640;23.312;2022-09-09T10:00:48;7.45;;;3.80;;
20036;SDS011;10179;42.640;23.312;2022-09-09T10:06:15;7.38;;;4.05;;
20036;SDS011;10179;42.640;23.312;2022-09-09T10:08:44;9.35;;;4.43;;
20036;SDS011;10179;42.640;23.312;2022-09-09T10:11:28;7.53;;;4.38;;
20036;SDS011;10179;42.640;23.312;2022-09-09T10:19:43;11.77;;;3.83;;
20036;SDS011;10179;42.640;23.312;2022-09-09T10:22:37;13.27;;;4.13;;
20036;SDS011;10179;42.640;23.312;2022-09-09T10:33:26;10.20;;;4.53;;
20036;SDS011;10179;42.640;23.312;2022-09-09T10:38:46;6.78;;;3.90;;
20036;SDS011;10179;42.640;23.312;2022-09-09T10:45:06;6.55;;;4.55;;
20036;SDS011;10179;42.640;23.312;2022-09-09T10:53:02;8.23;;;3.85;;
20036;SDS011;10179;42.640;23.312;2022-09-09T10:55:53;8.32;;;4.18;;
20036;SDS011;10179;42.640;23.312;2022-09-09T10:58:28;5.72;;;4.35;;
20036;SDS011;10179;42.640;23.312;2022-09-09T11:01:02;9.90;;;4.38;;
20036;SDS011;10179;42.640;23.312;2022-09-09T11:03:34;10.10;;;4.45;;
20036;SDS011;10179;42.640;23.312;2022-09-09T11:06:05;7.93;;;4.93;;
20036;SDS011;10179;42.640;23.312;2022-09-09T11:08:35;9.55;;;5.05;;
20036;SDS011;10179;42.640;23.312;2022-09-09T11:11:14;10.50;;;4.82;;
20036;SDS011;10179;42.640;23.312;2022-09-09T11:13:48;12.23;;;4.75;;
20036;SDS011;10179;42.640;23.312;2022-09-09T11:25:00;9.75;;;5.22;;
20036;SDS011;10179;42.640;23.312;2022-09-09T11:30:04;13.98;;;5.05;;
20036;SDS011;10179;42.640;23.312;2022-09-09T11:38:00;11.85;;;4.70;;
20036;SDS011;10179;42.640;23.312;2022-09-09T11:40:31;13.75;;;4.22;;
20036;SDS011;10179;42.640;23.312;2022-09-09T11:43:05;12.40;;;5.70;;
20036;SDS011;10179;42.640;23.312;2022-09-09T11:45:40;7.38;;;4.65;;
20036;SDS011;10179;42.640;23.312;2022-09-09T11:51:13;11.85;;;4.88;;
20036;SDS011;10179;42.640;23.312;2022-09-09T11:53:53;11.23;;;5.70;;
20036;SDS011;10179;42.640;23.312;2022-09-09T11:56:45;9.68;;;5.32;;
20036;SDS011;10179;42.640;23.312;2022-09-09T11:59:19;8.32;;;5.15;;
20036;SDS011;10179;42.640;23.312;2022-09-09T12:01:57;17.65;;;5.28;;
20036;SDS011;10179;42.640;23.312;2022-09-09T12:04:46;9.02;;;5.63;;
20036;SDS011;10179;42.640;23.312;2022-09-09T12:07:28;12.77;;;5.10;;
20036;SDS011;10179;42.640;23.312;2022-09-09T12:12:30;20.70;;;6.95;;
20036;SDS011;10179;42.640;23.312;2022-09-09T12:17:42;10.77;;;5.95;;
20036;SDS011;10179;42.640;23.312;2022-09-09T12:20:17;9.65;;;5.85;;
20036;SDS011;10179;42.640;23.312;2022-09-09T12:28:15;9.98;;;5.28;;
20036;SDS011;10179;42.640;23.312;2022-09-09T12:33:35;8.38;;;5.38;;
20036;SDS011;10179;42.640;23.312;2022-09-09T12:36:03;12.90;;;6.40;;
20036;SDS011;10179;42.640;23.312;2022-09-09T12:38:35;12.00;;;6.07;;
20036;SDS011;10179;42.640;23.312;2022-09-09T12:41:02;10.75;;;5.10;;
20036;SDS011;10179;42.640;23.312;2022-09-09T12:43:28;14.98;;;5.68;;
20036;SDS011;10179;42.640;23.312;2022-09-09T12:46:01;14.00;;;5.85;;
20036;SDS011;10179;42.640;23.312;2022-09-09T12:48:38;11.45;;;5.78;;
20036;SDS011;10179;42.640;23.312;2022-09-09T12:51:15;7.65;;;5.00;;
20036;SDS011;10179;42.640;23.312;2022-09-09T12:53:59;13.90;;;5.97;;
20036;SDS011;10179;42.640;23.312;2022-09-09T12:56:26;10.95;;;5.70;;
20036;SDS011;10179;42.640;23.312;2022-09-09T12:58:55;9.90;;;5.50;;
20036;SDS011;10179;42.640;23.312;2022-09-09T13:01:31;12.13;;;5.50;;
20036;SDS011;10179;42.640;23.312;2022-09-09T13:04:00;92.13;;;12.88;;
20036;SDS011;10179;42.640;23.312;2022-09-09T13:06:27;18.80;;;5.40;;
20036;SDS011;10179;42.640;23.312;2022-09-09T13:08:55;9.35;;;5.50;;
20036;SDS011;10179;42.640;23.312;2022-09-09T13:11:57;14.93;;;6.18;;
20036;SDS011;10179;42.640;23.312;2022-09-09T13:14:18;7.28;;;4.93;;
20036;SDS011;10179;42.640;23.312;2022-09-09T13:16:56;10.80;;;4.90;;
20036;SDS011;10179;42.640;23.312;2022-09-09T13:19:23;7.30;;;5.22;;
20036;SDS011;10179;42.640;23.312;2022-09-09T13:21:52;10.48;;;5.18;;
20036;SDS011;10179;42.640;23.312;2022-09-09T13:26:55;9.80;;;6.20;;
20036;SDS011;10179;42.640;23.312;2022-09-09T13:29:21;10.45;;;5.22;;
20036;SDS011;10179;42.640;23.312;2022-09-09T13:31:47;10.20;;;5.93;;
20036;SDS011;10179;42.640;23.312;2022-09-09T13:37:01;11.43;;;5.30;;
20036;SDS011;10179;42.640;23.312;2022-09-09T13:39:32;10.95;;;5.15;;
20036;SDS011;10179;42.640;23.312;2022-09-09T13:41:59;10.80;;;5.10;;
20036;SDS011;10179;42.640;23.312;2022-09-09T13:44:31;12.65;;;5.22;;
20036;SDS011;10179;42.640;23.312;2022-09-09T13:49:39;14.15;;;5.78;;
20036;SDS011;10179;42.640;23.312;2022-09-09T13:52:15;11.20;;;5.85;;
20036;SDS011;10179;42.640;23.312;2022-09-09T13:54:43;10.38;;;5.20;;
20036;SDS011;10179;42.640;23.312;2022-09-09T13:57:16;12.65;;;5.50;;
20036;SDS011;10179;42.640;23.312;2022-09-09T13:59:43;8.02;;;5.25;;
20036;SDS011;10179;42.640;23.312;2022-09-09T14:02:10;14.82;;;4.97;;
20036;SDS011;10179;42.640;23.312;2022-09-09T14:04:35;11.32;;;5.53;;
20036;SDS011;10179;42.640;23.312;2022-09-09T14:07:01;10.35;;;5.65;;
20036;SDS011;10179;42.640;23.312;2022-09-09T14:09:28;10.85;;;5.55;;
20036;SDS011;10179;42.640;23.312;2022-09-09T14:11:53;9.32;;;5.00;;
20036;SDS011;10179;42.640;23.312;2022-09-09T14:14:20;11.73;;;5.20;;
20036;SDS011;10179;42.640;23.312;2022-09-09T14:16:46;15.45;;;5.47;;
20036;SDS011;10179;42.640;23.312;2022-09-09T14:19:11;10.13;;;5.35;;
20036;SDS011;10179;42.640;23.312;2022-09-09T14:21:37;9.68;;;5.38;;
20036;SDS011;10179;42.640;23.312;2022-09-09T14:24:02;12.35;;;5.35;;
20036;SDS011;10179;42.640;23.312;2022-09-09T14:26:28;14.20;;;6.13;;
20036;SDS011;10179;42.640;23.312;2022-09-09T14:28:54;10.07;;;5.20;;
20036;SDS011;10179;42.640;23.312;2022-09-09T14:31:20;11.05;;;5.47;;
20036;SDS011;10179;42.640;23.312;2022-09-09T14:33:46;14.25;;;5.57;;
20036;SDS011;10179;42.640;23.312;2022-09-09T14:36:11;10.95;;;5.80;;
20036;SDS011;10179;42.640;23.312;2022-09-09T14:38:38;10.93;;;5.45;;
20036;SDS011;10179;42.640;23.312;2022-09-09T14:41:05;7.38;;;5.30;;
20036;SDS011;10179;42.640;23.312;2022-09-09T14:43:31;11.55;;;5.40;;
20036;SDS011;10179;42.640;23.312;2022-09-09T14:45:58;14.05;;;5.72;;
20036;SDS011;10179;42.640;23.312;2022-09-09T14:48:30;8.85;;;4.88;;
20036;SDS011;10179;42.640;23.312;2022-09-09T14:50:56;17.27;;;5.10;;
20036;SDS011;10179;42.640;23.312;2022-09-09T14:53:21;10.60;;;5.03;;
20036;SDS011;10179;42.640;23.312;2022-09-09T14:55:47;14.05;;;5.30;;
20036;SDS011;10179;42.640;23.312;2022-09-09T14:58:13;11.18;;;4.88;;
20036;SDS011;10179;42.640;23.312;2022-09-09T15:00:38;10.20;;;4.72;;
20036;SDS011;10179;42.640;23.312;2022-09-09T15:03:04;15.23;;;5.20;;
20036;SDS011;10179;42.640;23.312;2022-09-09T15:05:29;12.65;;;5.00;;
20036;SDS011;10179;42.640;23.312;2022-09-09T15:07:56;16.67;;;5.20;;
20036;SDS011;10179;42.640;23.312;2022-09-09T15:10:23;11.18;;;5.03;;
20036;SDS011;10179;42.640;23.312;2022-09-09T15:12:49;8.85;;;4.43;;
20036;SDS011;10179;42.640;23.312;2022-09-09T15:15:14;15.35;;;4.55;;
20036;SDS011;10179;42.640;23.312;2022-09-09T15:17:40;8.15;;;4.75;;
20036;SDS011;10179;42.640;23.312;2022-09-09T15:20:05;9.70;;;4.72;;
20036;SDS011;10179;42.640;23.312;2022-09-09T15:22:31;13.73;;;5.28;;
20036;SDS011;10179;42.640;23.312;2022-09-09T15:24:57;8.60;;;4.32;;
20036;SDS011;10179;42.640;23.312;2022-09-09T15:27:23;8.77;;;4.47;;
20036;SDS011;10179;42.640;23.312;2022-09-09T15:29:49;11.75;;;4.47;;
20036;SDS011;10179;42.640;23.312;2022-09-09T15:32:16;8.40;;;5.10;;
20036;SDS011;10179;42.640;23.312;2022-09-09T15:34:42;11.02;;;5.00;;
20036;SDS011;10179;42.640;23.312;2022-09-09T15:37:09;16.45;;;6.13;;
20036;SDS011;10179;42.640;23.312;2022-09-09T15:39:37;11.00;;;5.35;;
20036;SDS011;10179;42.640;23.312;2022-09-09T15:42:03;9.27;;;5.50;;
20036;SDS011;10179;42.640;23.312;2022-09-09T15:44:29;10.57;;;4.97;;
20036;SDS011;10179;42.640;23.312;2022-09-09T15:46:54;10.75;;;5.35;;
20036;SDS011;10179;42.640;23.312;2022-09-09T15:49:21;10.93;;;4.82;;
20036;SDS011;10179;42.640;23.312;2022-09-09T15:51:50;11.15;;;5.47;;
20036;SDS011;10179;42.640;23.312;2022-09-09T15:54:19;10.05;;;5.97;;
20036;SDS011;10179;42.640;23.312;2022-09-09T15:56:49;12.57;;;6.10;;
20036;SDS011;10179;42.640;23.312;2022-09-09T15:59:16;17.55;;;5.88;;
20036;SDS011;10179;42.640;23.312;2022-09-09T16:01:42;13.00;;;6.18;;
20036;SDS011;10179;42.640;23.312;2022-09-09T16:04:08;12.77;;;5.90;;
20036;SDS011;10179;42.640;23.312;2022-09-09T16:06:35;11.02;;;5.63;;
20036;SDS011;10179;42.640;23.312;2022-09-09T16:09:01;14.70;;;5.70;;
20036;SDS011;10179;42.640;23.312;2022-09-09T16:11:36;14.68;;;5.85;;
20036;SDS011;10179;42.640;23.312;2022-09-09T16:14:03;13.93;;;5.93;;
20036;SDS011;10179;42.640;23.312;2022-09-09T16:16:31;10.27;;;5.57;;
20036;SDS011;10179;42.640;23.312;2022-09-09T16:18:58;13.20;;;5.45;;
20036;SDS011;10179;42.640;23.312;2022-09-09T16:21:36;8.77;;;5.45;;
20036;SDS011;10179;42.640;23.312;2022-09-09T16:24:05;21.50;;;6.43;;
20036;SDS011;10179;42.640;23.312;2022-09-09T16:26:33;11.38;;;5.75;;
20036;SDS011;10179;42.640;23.312;2022-09-09T16:29:00;15.77;;;6.47;;
20036;SDS011;10179;42.640;23.312;2022-09-09T16:31:27;12.07;;;6.07;;
20036;SDS011;10179;42.640;23.312;2022-09-09T16:33:54;10.38;;;5.15;;
20036;SDS011;10179;42.640;23.312;2022-09-09T16:36:24;8.18;;;5.28;;
20036;SDS011;10179;42.640;23.312;2022-09-09T16:38:52;11.87;;;5.70;;
20036;SDS011;10179;42.640;23.312;2022-09-09T16:41:25;13.27;;;5.80;;
20036;SDS011;10179;42.640;23.312;2022-09-09T16:43:58;10.55;;;5.70;;
20036;SDS011;10179;42.640;23.312;2022-09-09T16:46:25;12.32;;;6.32;;
20036;SDS011;10179;42.640;23.312;2022-09-09T16:48:52;19.67;;;6.50;;
20036;SDS011;10179;42.640;23.312;2022-09-09T16:51:27;9.00;;;5.95;;
20036;SDS011;10179;42.640;23.312;2022-09-09T16:53:55;9.95;;;5.78;;
20036;SDS011;10179;42.640;23.312;2022-09-09T16:56:25;12.70;;;6.20;;
20036;SDS011;10179;42.640;23.312;2022-09-09T16:58:55;10.43;;;6.22;;
20036;SDS011;10179;42.640;23.312;2022-09-09T17:01:22;9.90;;;5.63;;
20036;SDS011;10179;42.640;23.312;2022-09-09T17:03:52;10.05;;;6.18;;
20036;SDS011;10179;42.640;23.312;2022-09-09T17:06:21;15.48;;;5.95;;
20036;SDS011;10179;42.640;23.312;2022-09-09T17:08:53;13.18;;;6.18;;
20036;SDS011;10179;42.640;23.312;2022-09-09T17:11:19;15.70;;;5.97;;